sensor_id;sensor_type;location;lat;lon;timestamp;P1;durP1;ratioP1;P2;durP2;ratioP2
17079;SDS011;8655;57.106;-2.088;2023-12-14T00:02:00;2.00;;;1.20;;
17079;SDS011;8655;57.106;-2.088;2023-12-14T00:04:26;2.97;;;1.20;;
17079;SDS011;8655;57.106;-2.088;2023-12-14T00:06:52;2.67;;;1.23;;
17079;SDS011;8655;57.106;-2.088;2023-12-14T00:09:17;1.87;;;1.20;;
17079;SDS011;8655;57.106;-2.088;2023-12-14T00:11:43;2.87;;;1.20;;
17079;SDS011;8655;57.106;-2.088;2023-12-14T00:14:09;2.40;;;1.23;;
17079;SDS011;8655;57.106;-2.088;2023-12-14T00:16:34;2.63;;;1.43;;
17079;SDS011;8655;57.106;-2.088;2023-12-14T00:19:00;2.97;;;1.40;;
17079;SDS011;8655;57.106;-2.088;2023-12-14T00:21:26;2.17;;;1.07;;
17079;SDS011;8655;57.106;-2.088;2023-12-14T00:23:51;1.73;;;1.13;;
17079;SDS011;8655;57.106;-2.088;2023-12-14T00:26:17;2.07;;;1.00;;
17079;SDS011;8655;57.106;-2.088;2023-12-14T00:28:43;1.97;;;1.20;;
17079;SDS011;8655;57.106;-2.088;2023-12-14T00:31:09;1.57;;;1.13;;
17079;SDS011;8655;57.106;-2.088;2023-12-14T00:33:34;1.73;;;1.13;;
17079;SDS011;8655;57.106;-2.088;2023-12-14T00:36:00;3.37;;;1.70;;
17079;SDS011;8655;57.106;-2.088;2023-12-14T00:38:26;1.77;;;1.00;;
17079;SDS011;8655;57.106;-2.088;2023-12-14T00:40:51;1.30;;;0.97;;
17079;SDS011;8655;57.106;-2.088;2023-12-14T00:43:17;2.63;;;1.27;;
17079;SDS011;8655;57.106;-2.088;2023-12-14T00:45:43;1.60;;;1.07;;
17079;SDS011;8655;57.106;-2.088;2023-12-14T00:48:08;2.63;;;1.13;;
17079;SDS011;8655;57.106;-2.088;2023-12-14T00:50:34;1.90;;;0.90;;
17079;SDS011;8655;57.106;-2.088;2023-12-14T00:53:00;2.63;;;1.30;;
17079;SDS011;8655;57.106;-2.088;2023-12-14T00:55:25;2.83;;;1.27;;
17079;SDS011;8655;57.106;-2.088;2023-12-14T00:57:51;2.40;;;0.90;;
17079;SDS011;8655;57.106;-2.088;2023-12-14T01:00:17;2.53;;;1.30;;
17079;SDS011;8655;57.106;-2.088;2023-12-14T01:02:44;1.90;;;1.13;;
17079;SDS011;8655;57.106;-2.088;2023-12-14T01:05:09;2.57;;;1.10;;
17079;SDS011;8655;57.106;-2.088;2023-12-14T01:07:35;2.37;;;1.40;;
17079;SDS011;8655;57.106;-2.088;2023-12-14T01:10:01;3.37;;;1.20;;
17079;SDS011;8655;57.106;-2.088;2023-12-14T01:12:27;2.20;;;1.17;;
17079;SDS011;8655;57.106;-2.088;2023-12-14T01:14:53;2.50;;;1.20;;
17079;SDS011;8655;57.106;-2.088;2023-12-14T01:17:19;2.30;;;1.03;;
17079;SDS011;8655;57.106;-2.088;2023-12-14T01:19:44;3.07;;;1.50;;
17079;SDS011;8655;57.106;-2.088;2023-12-14T01:22:10;2.07;;;1.30;;
17079;SDS011;8655;57.106;-2.088;2023-12-14T01:24:36;2.37;;;1.30;;
17079;SDS011;8655;57.106;-2.088;2023-12-14T01:27:02;4.00;;;1.40;;
17079;SDS011;8655;57.106;-2.088;2023-12-14T01:29:27;3.73;;;1.23;;
17079;SDS011;8655;57.106;-2.088;2023-12-14T01:31:53;3.30;;;1.23;;
17079;SDS011;8655;57.106;-2.088;2023-12-14T01:34:19;2.53;;;1.20;;
17079;SDS011;8655;57.106;-2.088;2023-12-14T01:36:44;2.70;;;1.20;;
17079;SDS011;8655;57.106;-2.088;2023-12-14T01:39:10;2.40;;;1.20;;
17079;SDS011;8655;57.106;-2.088;2023-12-14T01:41:36;3.73;;;1.30;;
17079;SDS011;8655;57.106;-2.088;2023-12-14T01:44:02;2.87;;;1.30;;
17079;SDS011;8655;57.106;-2.088;2023-12-14T01:46:27;1.67;;;1.10;;
17079;SDS011;8655;57.106;-2.088;2023-12-14T01:48:53;2.17;;;1.20;;
17079;SDS011;8655;57.106;-2.088;2023-12-14T01:51:19;2.70;;;1.37;;
17079;SDS011;8655;57.106;-2.088;2023-12-14T01:53:45;3.23;;;1.23;;
17079;SDS011;8655;57.106;-2.088;2023-12-14T01:56:10;2.87;;;1.13;;
17079;SDS011;8655;57.106;-2.088;2023-12-14T01:58:36;3.30;;;1.30;;
17079;SDS011;8655;57.106;-2.088;2023-12-14T02:04:03;3.60;;;1.43;;
17079;SDS011;8655;57.106;-2.088;2023-12-14T02:06:31;2.70;;;1.33;;
17079;SDS011;8655;57.106;-2.088;2023-12-14T02:08:57;1.87;;;1.00;;
17079;SDS011;8655;57.106;-2.088;2023-12-14T02:11:22;1.43;;;0.90;;
17079;SDS011;8655;57.106;-2.088;2023-12-14T02:13:48;1.43;;;0.90;;
17079;SDS011;8655;57.106;-2.088;2023-12-14T02:16:14;2.03;;;1.13;;
17079;SDS011;8655;57.106;-2.088;2023-12-14T02:18:40;2.20;;;1.40;;
17079;SDS011;8655;57.106;-2.088;2023-12-14T02:21:06;3.80;;;1.60;;
17079;SDS011;8655;57.106;-2.088;2023-12-14T02:23:31;3.30;;;1.30;;
17079;SDS011;8655;57.106;-2.088;2023-12-14T02:25:58;2.13;;;1.10;;
17079;SDS011;8655;57.106;-2.088;2023-12-14T02:28:24;2.10;;;1.10;;
17079;SDS011;8655;57.106;-2.088;2023-12-14T02:30:50;1.87;;;1.03;;
17079;SDS011;8655;57.106;-2.088;2023-12-14T02:33:15;1.90;;;1.20;;
17079;SDS011;8655;57.106;-2.088;2023-12-14T02:35:42;2.03;;;1.20;;
17079;SDS011;8655;57.106;-2.088;2023-12-14T02:38:08;1.93;;;1.20;;
17079;SDS011;8655;57.106;-2.088;2023-12-14T02:40:34;2.10;;;1.27;;
17079;SDS011;8655;57.106;-2.088;2023-12-14T02:42:59;2.30;;;1.40;;
17079;SDS011;8655;57.106;-2.088;2023-12-14T02:45:25;2.03;;;1.30;;
17079;SDS011;8655;57.106;-2.088;2023-12-14T02:47:51;2.30;;;1.13;;
17079;SDS011;8655;57.106;-2.088;2023-12-14T02:50:19;2.70;;;1.10;;
17079;SDS011;8655;57.106;-2.088;2023-12-14T02:52:44;3.40;;;1.47;;
17079;SDS011;8655;57.106;-2.088;2023-12-14T02:55:10;2.23;;;1.20;;
17079;SDS011;8655;57.106;-2.088;2023-12-14T02:57:36;1.97;;;1.20;;
17079;SDS011;8655;57.106;-2.088;2023-12-14T03:00:01;2.67;;;1.17;;
17079;SDS011;8655;57.106;-2.088;2023-12-14T03:02:28;2.00;;;1.10;;
17079;SDS011;8655;57.106;-2.088;2023-12-14T03:04:53;1.73;;;1.00;;
17079;SDS011;8655;57.106;-2.088;2023-12-14T03:07:19;2.67;;;1.30;;
17079;SDS011;8655;57.106;-2.088;2023-12-14T03:09:45;2.10;;;1.10;;
17079;SDS011;8655;57.106;-2.088;2023-12-14T03:12:10;3.33;;;1.33;;
17079;SDS011;8655;57.106;-2.088;2023-12-14T03:14:36;2.40;;;1.23;;
17079;SDS011;8655;57.106;-2.088;2023-12-14T03:17:02;3.13;;;1.17;;
17079;SDS011;8655;57.106;-2.088;2023-12-14T03:19:28;4.40;;;1.70;;
17079;SDS011;8655;57.106;-2.088;2023-12-14T03:21:54;2.90;;;1.50;;
17079;SDS011;8655;57.106;-2.088;2023-12-14T03:24:20;2.17;;;1.47;;
17079;SDS011;8655;57.106;-2.088;2023-12-14T03:26:46;2.10;;;1.30;;
17079;SDS011;8655;57.106;-2.088;2023-12-14T03:29:11;2.23;;;1.30;;
17079;SDS011;8655;57.106;-2.088;2023-12-14T03:31:38;2.83;;;1.50;;
17079;SDS011;8655;57.106;-2.088;2023-12-14T03:34:05;3.07;;;1.50;;
17079;SDS011;8655;57.106;-2.088;2023-12-14T03:36:30;1.93;;;1.23;;
17079;SDS011;8655;57.106;-2.088;2023-12-14T03:38:56;2.30;;;1.03;;
17079;SDS011;8655;57.106;-2.088;2023-12-14T03:41:22;2.03;;;1.07;;
17079;SDS011;8655;57.106;-2.088;2023-12-14T03:43:47;2.57;;;1.30;;
17079;SDS011;8655;57.106;-2.088;2023-12-14T03:46:13;3.03;;;1.47;;
17079;SDS011;8655;57.106;-2.088;2023-12-14T03:48:39;2.87;;;1.43;;
17079;SDS011;8655;57.106;-2.088;2023-12-14T03:51:04;2.57;;;1.30;;
17079;SDS011;8655;57.106;-2.088;2023-12-14T03:53:31;2.33;;;1.20;;
17079;SDS011;8655;57.106;-2.088;2023-12-14T03:55:57;3.03;;;1.33;;
17079;SDS011;8655;57.106;-2.088;2023-12-14T03:58:23;2.30;;;1.23;;
17079;SDS011;8655;57.106;-2.088;2023-12-14T04:00:49;3.00;;;1.37;;
17079;SDS011;8655;57.106;-2.088;2023-12-14T04:03:14;3.10;;;1.40;;
17079;SDS011;8655;57.106;-2.088;2023-12-14T04:05:40;3.77;;;1.40;;
17079;SDS011;8655;57.106;-2.088;2023-12-14T04:08:06;2.53;;;1.20;;
17079;SDS011;8655;57.106;-2.088;2023-12-14T04:10:32;3.30;;;1.30;;
17079;SDS011;8655;57.106;-2.088;2023-12-14T04:12:57;3.77;;;1.43;;
17079;SDS011;8655;57.106;-2.088;2023-12-14T04:15:23;2.50;;;1.40;;
17079;SDS011;8655;57.106;-2.088;2023-12-14T04:17:49;1.90;;;1.20;;
17079;SDS011;8655;57.106;-2.088;2023-12-14T04:20:14;4.20;;;1.40;;
17079;SDS011;8655;57.106;-2.088;2023-12-14T04:22:41;2.93;;;1.60;;
17079;SDS011;8655;57.106;-2.088;2023-12-14T04:25:08;4.10;;;1.50;;
17079;SDS011;8655;57.106;-2.088;2023-12-14T04:27:34;3.13;;;1.20;;
17079;SDS011;8655;57.106;-2.088;2023-12-14T04:29:59;1.43;;;0.90;;
17079;SDS011;8655;57.106;-2.088;2023-12-14T04:32:25;2.10;;;1.10;;
17079;SDS011;8655;57.106;-2.088;2023-12-14T04:34:51;1.73;;;1.10;;
17079;SDS011;8655;57.106;-2.088;2023-12-14T04:37:16;3.17;;;1.50;;
17079;SDS011;8655;57.106;-2.088;2023-12-14T04:39:42;3.10;;;1.30;;
17079;SDS011;8655;57.106;-2.088;2023-12-14T04:42:08;3.30;;;1.30;;
17079;SDS011;8655;57.106;-2.088;2023-12-14T04:44:34;2.37;;;1.30;;
17079;SDS011;8655;57.106;-2.088;2023-12-14T04:46:59;4.10;;;1.57;;
17079;SDS011;8655;57.106;-2.088;2023-12-14T04:49:25;3.10;;;1.30;;
17079;SDS011;8655;57.106;-2.088;2023-12-14T04:51:51;2.23;;;1.40;;
17079;SDS011;8655;57.106;-2.088;2023-12-14T04:54:16;2.07;;;1.30;;
17079;SDS011;8655;57.106;-2.088;2023-12-14T04:56:45;1.90;;;1.07;;
17079;SDS011;8655;57.106;-2.088;2023-12-14T04:59:11;2.67;;;1.30;;
17079;SDS011;8655;57.106;-2.088;2023-12-14T05:01:37;2.47;;;1.00;;
17079;SDS011;8655;57.106;-2.088;2023-12-14T05:04:02;2.23;;;1.30;;
17079;SDS011;8655;57.106;-2.088;2023-12-14T05:06:29;2.17;;;1.30;;
17079;SDS011;8655;57.106;-2.088;2023-12-14T05:08:55;3.53;;;1.30;;
17079;SDS011;8655;57.106;-2.088;2023-12-14T05:11:20;2.90;;;1.17;;
17079;SDS011;8655;57.106;-2.088;2023-12-14T05:13:46;2.07;;;1.20;;
17079;SDS011;8655;57.106;-2.088;2023-12-14T05:16:13;2.23;;;1.40;;
17079;SDS011;8655;57.106;-2.088;2023-12-14T05:18:39;3.13;;;1.30;;
17079;SDS011;8655;57.106;-2.088;2023-12-14T05:21:05;2.03;;;1.07;;
17079;SDS011;8655;57.106;-2.088;2023-12-14T05:23:31;3.10;;;1.20;;
17079;SDS011;8655;57.106;-2.088;2023-12-14T05:25:57;3.03;;;1.30;;
17079;SDS011;8655;57.106;-2.088;2023-12-14T05:28:22;2.73;;;1.30;;
17079;SDS011;8655;57.106;-2.088;2023-12-14T05:30:48;1.97;;;1.30;;
17079;SDS011;8655;57.106;-2.088;2023-12-14T05:33:14;3.83;;;1.30;;
17079;SDS011;8655;57.106;-2.088;2023-12-14T05:35:39;1.37;;;0.93;;
17079;SDS011;8655;57.106;-2.088;2023-12-14T05:38:05;3.03;;;1.23;;
17079;SDS011;8655;57.106;-2.088;2023-12-14T05:40:31;2.93;;;1.30;;
17079;SDS011;8655;57.106;-2.088;2023-12-14T05:42:57;1.60;;;1.10;;
17079;SDS011;8655;57.106;-2.088;2023-12-14T05:45:22;2.30;;;1.33;;
17079;SDS011;8655;57.106;-2.088;2023-12-14T05:47:48;2.17;;;1.23;;
17079;SDS011;8655;57.106;-2.088;2023-12-14T05:50:14;2.20;;;1.30;;
17079;SDS011;8655;57.106;-2.088;2023-12-14T05:52:39;2.10;;;1.20;;
17079;SDS011;8655;57.106;-2.088;2023-12-14T05:55:10;2.57;;;1.07;;
17079;SDS011;8655;57.106;-2.088;2023-12-14T05:57:36;2.43;;;1.30;;
17079;SDS011;8655;57.106;-2.088;2023-12-14T06:00:05;2.00;;;1.23;;
17079;SDS011;8655;57.106;-2.088;2023-12-14T06:02:32;1.90;;;1.13;;
17079;SDS011;8655;57.106;-2.088;2023-12-14T06:04:58;4.93;;;1.40;;
17079;SDS011;8655;57.106;-2.088;2023-12-14T06:07:24;2.53;;;1.40;;
17079;SDS011;8655;57.106;-2.088;2023-12-14T06:09:50;2.47;;;1.20;;
17079;SDS011;8655;57.106;-2.088;2023-12-14T06:12:16;2.47;;;1.20;;
17079;SDS011;8655;57.106;-2.088;2023-12-14T06:14:41;3.17;;;1.40;;
17079;SDS011;8655;57.106;-2.088;2023-12-14T06:17:07;2.13;;;1.13;;
17079;SDS011;8655;57.106;-2.088;2023-12-14T06:19:33;1.27;;;0.97;;
17079;SDS011;8655;57.106;-2.088;2023-12-14T06:21:59;2.80;;;1.27;;
17079;SDS011;8655;57.106;-2.088;2023-12-14T06:24:24;1.97;;;1.10;;
17079;SDS011;8655;57.106;-2.088;2023-12-14T06:26:50;1.67;;;0.97;;
17079;SDS011;8655;57.106;-2.088;2023-12-14T06:29:16;2.80;;;1.53;;
17079;SDS011;8655;57.106;-2.088;2023-12-14T06:31:42;1.63;;;1.20;;
17079;SDS011;8655;57.106;-2.088;2023-12-14T06:34:10;2.77;;;1.30;;
17079;SDS011;8655;57.106;-2.088;2023-12-14T06:36:35;2.47;;;1.10;;
17079;SDS011;8655;57.106;-2.088;2023-12-14T06:39:01;2.37;;;1.10;;
17079;SDS011;8655;57.106;-2.088;2023-12-14T06:41:30;1.83;;;1.20;;
17079;SDS011;8655;57.106;-2.088;2023-12-14T06:43:56;1.57;;;1.00;;
17079;SDS011;8655;57.106;-2.088;2023-12-14T06:46:22;1.10;;;1.00;;
17079;SDS011;8655;57.106;-2.088;2023-12-14T06:48:48;1.60;;;0.90;;
17079;SDS011;8655;57.106;-2.088;2023-12-14T06:51:14;1.07;;;0.70;;
17079;SDS011;8655;57.106;-2.088;2023-12-14T06:53:40;1.30;;;0.73;;
17079;SDS011;8655;57.106;-2.088;2023-12-14T06:56:07;2.97;;;1.10;;
17079;SDS011;8655;57.106;-2.088;2023-12-14T06:58:45;1.63;;;0.80;;
17079;SDS011;8655;57.106;-2.088;2023-12-14T07:01:14;2.13;;;1.10;;
17079;SDS011;8655;57.106;-2.088;2023-12-14T07:03:41;1.80;;;1.03;;
17079;SDS011;8655;57.106;-2.088;2023-12-14T07:06:11;1.67;;;0.90;;
17079;SDS011;8655;57.106;-2.088;2023-12-14T07:08:38;2.00;;;0.97;;
17079;SDS011;8655;57.106;-2.088;2023-12-14T07:11:05;1.23;;;0.73;;
17079;SDS011;8655;57.106;-2.088;2023-12-14T07:13:32;1.40;;;0.97;;
17079;SDS011;8655;57.106;-2.088;2023-12-14T07:15:57;1.17;;;0.90;;
17079;SDS011;8655;57.106;-2.088;2023-12-14T07:18:23;1.03;;;0.93;;
17079;SDS011;8655;57.106;-2.088;2023-12-14T07:20:49;1.90;;;0.93;;
17079;SDS011;8655;57.106;-2.088;2023-12-14T07:23:15;2.87;;;1.07;;
17079;SDS011;8655;57.106;-2.088;2023-12-14T07:25:40;0.87;;;0.60;;
17079;SDS011;8655;57.106;-2.088;2023-12-14T07:28:06;1.23;;;0.93;;
17079;SDS011;8655;57.106;-2.088;2023-12-14T07:30:32;1.30;;;0.97;;
17079;SDS011;8655;57.106;-2.088;2023-12-14T07:32:57;1.43;;;1.00;;
17079;SDS011;8655;57.106;-2.088;2023-12-14T07:35:23;1.70;;;0.80;;
17079;SDS011;8655;57.106;-2.088;2023-12-14T07:37:49;0.70;;;0.70;;
17079;SDS011;8655;57.106;-2.088;2023-12-14T07:40:15;1.60;;;0.80;;
17079;SDS011;8655;57.106;-2.088;2023-12-14T07:42:41;1.47;;;0.87;;
17079;SDS011;8655;57.106;-2.088;2023-12-14T07:45:07;1.90;;;0.97;;
17079;SDS011;8655;57.106;-2.088;2023-12-14T07:47:34;1.40;;;0.90;;
17079;SDS011;8655;57.106;-2.088;2023-12-14T07:50:00;0.67;;;0.67;;
17079;SDS011;8655;57.106;-2.088;2023-12-14T07:52:26;1.07;;;0.73;;
17079;SDS011;8655;57.106;-2.088;2023-12-14T07:54:51;1.23;;;0.73;;
17079;SDS011;8655;57.106;-2.088;2023-12-14T07:57:17;1.17;;;0.80;;
17079;SDS011;8655;57.106;-2.088;2023-12-14T07:59:43;1.20;;;0.90;;
17079;SDS011;8655;57.106;-2.088;2023-12-14T08:02:09;1.53;;;0.77;;
17079;SDS011;8655;57.106;-2.088;2023-12-14T08:04:35;1.20;;;0.80;;
17079;SDS011;8655;57.106;-2.088;2023-12-14T08:07:01;1.00;;;0.80;;
17079;SDS011;8655;57.106;-2.088;2023-12-14T08:09:27;1.57;;;0.80;;
17079;SDS011;8655;57.106;-2.088;2023-12-14T08:11:53;1.30;;;0.70;;
17079;SDS011;8655;57.106;-2.088;2023-12-14T08:14:18;1.00;;;0.60;;
17079;SDS011;8655;57.106;-2.088;2023-12-14T08:16:44;0.82;;;0.60;;
17079;SDS011;8655;57.106;-2.088;2023-12-14T08:19:10;1.35;;;0.85;;
17079;SDS011;8655;57.106;-2.088;2023-12-14T08:21:36;0.90;;;0.70;;
17079;SDS011;8655;57.106;-2.088;2023-12-14T08:24:01;1.17;;;0.80;;
17079;SDS011;8655;57.106;-2.088;2023-12-14T08:26:27;1.73;;;1.03;;
17079;SDS011;8655;57.106;-2.088;2023-12-14T08:28:53;1.08;;;0.80;;
17079;SDS011;8655;57.106;-2.088;2023-12-14T08:31:18;0.95;;;0.80;;
17079;SDS011;8655;57.106;-2.088;2023-12-14T08:33:44;1.15;;;0.75;;
17079;SDS011;8655;57.106;-2.088;2023-12-14T08:36:10;0.80;;;0.70;;
17079;SDS011;8655;57.106;-2.088;2023-12-14T08:38:39;0.85;;;0.70;;
17079;SDS011;8655;57.106;-2.088;2023-12-14T08:41:05;0.70;;;0.70;;
17079;SDS011;8655;57.106;-2.088;2023-12-14T08:43:31;2.45;;;0.80;;
17079;SDS011;8655;57.106;-2.088;2023-12-14T08:45:57;0.75;;;0.75;;
17079;SDS011;8655;57.106;-2.088;2023-12-14T08:48:22;0.87;;;0.70;;
17079;SDS011;8655;57.106;-2.088;2023-12-14T08:50:48;0.50;;;0.50;;
17079;SDS011;8655;57.106;-2.088;2023-12-14T08:53:14;0.98;;;0.70;;
17079;SDS011;8655;57.106;-2.088;2023-12-14T08:55:40;0.77;;;0.75;;
17079;SDS011;8655;57.106;-2.088;2023-12-14T08:58:06;1.17;;;0.90;;
17079;SDS011;8655;57.106;-2.088;2023-12-14T09:00:31;0.85;;;0.77;;
17079;SDS011;8655;57.106;-2.088;2023-12-14T09:02:57;1.07;;;0.73;;
17079;SDS011;8655;57.106;-2.088;2023-12-14T09:05:23;0.77;;;0.60;;
17079;SDS011;8655;57.106;-2.088;2023-12-14T09:07:49;1.30;;;0.80;;
17079;SDS011;8655;57.106;-2.088;2023-12-14T09:10:19;0.70;;;0.60;;
17079;SDS011;8655;57.106;-2.088;2023-12-14T09:12:45;1.40;;;0.80;;
17079;SDS011;8655;57.106;-2.088;2023-12-14T09:15:11;0.53;;;0.53;;
17079;SDS011;8655;57.106;-2.088;2023-12-14T09:17:36;1.23;;;0.70;;
17079;SDS011;8655;57.106;-2.088;2023-12-14T09:20:02;0.88;;;0.80;;
17079;SDS011;8655;57.106;-2.088;2023-12-14T09:22:31;0.60;;;0.60;;
17079;SDS011;8655;57.106;-2.088;2023-12-14T09:24:57;1.65;;;0.70;;
17079;SDS011;8655;57.106;-2.088;2023-12-14T09:27:23;1.40;;;0.70;;
17079;SDS011;8655;57.106;-2.088;2023-12-14T09:29:48;0.70;;;0.60;;
17079;SDS011;8655;57.106;-2.088;2023-12-14T09:32:14;0.85;;;0.70;;
17079;SDS011;8655;57.106;-2.088;2023-12-14T09:34:42;1.00;;;0.77;;
17079;SDS011;8655;57.106;-2.088;2023-12-14T09:37:08;0.80;;;0.70;;
17079;SDS011;8655;57.106;-2.088;2023-12-14T09:39:34;1.33;;;0.80;;
17079;SDS011;8655;57.106;-2.088;2023-12-14T09:42:01;0.80;;;0.53;;
17079;SDS011;8655;57.106;-2.088;2023-12-14T09:44:29;1.27;;;0.80;;
17079;SDS011;8655;57.106;-2.088;2023-12-14T09:46:55;1.13;;;0.83;;
17079;SDS011;8655;57.106;-2.088;2023-12-14T09:49:24;1.10;;;0.80;;
17079;SDS011;8655;57.106;-2.088;2023-12-14T09:51:54;1.35;;;0.95;;
17079;SDS011;8655;57.106;-2.088;2023-12-14T09:54:20;1.10;;;0.77;;
17079;SDS011;8655;57.106;-2.088;2023-12-14T09:56:46;0.80;;;0.80;;
17079;SDS011;8655;57.106;-2.088;2023-12-14T09:59:12;1.23;;;0.80;;
17079;SDS011;8655;57.106;-2.088;2023-12-14T10:01:38;0.75;;;0.65;;
17079;SDS011;8655;57.106;-2.088;2023-12-14T10:04:08;0.77;;;0.67;;
17079;SDS011;8655;57.106;-2.088;2023-12-14T10:06:35;1.03;;;0.70;;
17079;SDS011;8655;57.106;-2.088;2023-12-14T10:09:02;0.60;;;0.50;;
17079;SDS011;8655;57.106;-2.088;2023-12-14T10:11:28;1.27;;;0.80;;
17079;SDS011;8655;57.106;-2.088;2023-12-14T10:13:54;0.50;;;0.50;;
17079;SDS011;8655;57.106;-2.088;2023-12-14T10:16:30;0.80;;;0.80;;
17079;SDS011;8655;57.106;-2.088;2023-12-14T10:18:57;1.23;;;0.73;;
17079;SDS011;8655;57.106;-2.088;2023-12-14T10:21:24;0.70;;;0.70;;
17079;SDS011;8655;57.106;-2.088;2023-12-14T10:23:56;1.20;;;1.00;;
17079;SDS011;8655;57.106;-2.088;2023-12-14T10:26:23;1.70;;;0.80;;
17079;SDS011;8655;57.106;-2.088;2023-12-14T10:28:50;1.20;;;0.90;;
17079;SDS011;8655;57.106;-2.088;2023-12-14T10:31:17;0.97;;;0.87;;
17079;SDS011;8655;57.106;-2.088;2023-12-14T10:33:45;0.77;;;0.70;;
17079;SDS011;8655;57.106;-2.088;2023-12-14T10:36:12;0.70;;;0.70;;
17079;SDS011;8655;57.106;-2.088;2023-12-14T10:38:39;1.40;;;0.90;;
17079;SDS011;8655;57.106;-2.088;2023-12-14T10:41:07;1.37;;;0.90;;
17079;SDS011;8655;57.106;-2.088;2023-12-14T10:43:35;1.73;;;1.00;;
17079;SDS011;8655;57.106;-2.088;2023-12-14T10:46:01;1.30;;;0.83;;
17079;SDS011;8655;57.106;-2.088;2023-12-14T10:48:35;0.77;;;0.70;;
17079;SDS011;8655;57.106;-2.088;2023-12-14T10:51:07;1.10;;;0.90;;
17079;SDS011;8655;57.106;-2.088;2023-12-14T10:53:35;1.37;;;0.77;;
17079;SDS011;8655;57.106;-2.088;2023-12-14T10:56:01;1.90;;;0.90;;
17079;SDS011;8655;57.106;-2.088;2023-12-14T11:01:32;2.27;;;1.17;;
17079;SDS011;8655;57.106;-2.088;2023-12-14T11:04:00;1.10;;;0.90;;
17079;SDS011;8655;57.106;-2.088;2023-12-14T11:06:32;1.73;;;1.00;;
17079;SDS011;8655;57.106;-2.088;2023-12-14T11:09:04;0.70;;;0.70;;
17079;SDS011;8655;57.106;-2.088;2023-12-14T11:11:39;0.87;;;0.80;;
17079;SDS011;8655;57.106;-2.088;2023-12-14T11:14:07;0.90;;;0.80;;
17079;SDS011;8655;57.106;-2.088;2023-12-14T11:16:35;1.70;;;0.90;;
17079;SDS011;8655;57.106;-2.088;2023-12-14T11:21:46;1.40;;;1.20;;
17079;SDS011;8655;57.106;-2.088;2023-12-14T11:24:12;1.20;;;0.90;;
17079;SDS011;8655;57.106;-2.088;2023-12-14T11:26:39;1.77;;;0.77;;
17079;SDS011;8655;57.106;-2.088;2023-12-14T11:29:06;1.73;;;1.00;;
17079;SDS011;8655;57.106;-2.088;2023-12-14T11:31:32;1.90;;;0.87;;
17079;SDS011;8655;57.106;-2.088;2023-12-14T11:33:59;1.10;;;1.00;;
17079;SDS011;8655;57.106;-2.088;2023-12-14T11:36:29;1.53;;;1.00;;
17079;SDS011;8655;57.106;-2.088;2023-12-14T11:38:55;1.40;;;1.00;;
17079;SDS011;8655;57.106;-2.088;2023-12-14T11:41:21;0.77;;;0.67;;
17079;SDS011;8655;57.106;-2.088;2023-12-14T11:43:50;1.67;;;0.80;;
17079;SDS011;8655;57.106;-2.088;2023-12-14T11:46:16;1.53;;;0.90;;
17079;SDS011;8655;57.106;-2.088;2023-12-14T11:48:45;1.63;;;1.20;;
17079;SDS011;8655;57.106;-2.088;2023-12-14T11:51:13;1.50;;;0.80;;
17079;SDS011;8655;57.106;-2.088;2023-12-14T11:53:43;1.70;;;1.00;;
17079;SDS011;8655;57.106;-2.088;2023-12-14T11:56:13;2.77;;;1.07;;
17079;SDS011;8655;57.106;-2.088;2023-12-14T11:58:43;1.43;;;1.00;;
17079;SDS011;8655;57.106;-2.088;2023-12-14T12:01:11;1.93;;;1.00;;
17079;SDS011;8655;57.106;-2.088;2023-12-14T12:03:40;1.73;;;1.00;;
17079;SDS011;8655;57.106;-2.088;2023-12-14T12:06:05;1.20;;;1.00;;
17079;SDS011;8655;57.106;-2.088;2023-12-14T12:08:31;1.17;;;0.90;;
17079;SDS011;8655;57.106;-2.088;2023-12-14T12:11:07;2.03;;;1.10;;
17079;SDS011;8655;57.106;-2.088;2023-12-14T12:13:34;2.27;;;1.00;;
17079;SDS011;8655;57.106;-2.088;2023-12-14T12:15:59;2.20;;;1.00;;
17079;SDS011;8655;57.106;-2.088;2023-12-14T12:18:25;1.57;;;0.90;;
17079;SDS011;8655;57.106;-2.088;2023-12-14T12:20:52;2.30;;;1.00;;
17079;SDS011;8655;57.106;-2.088;2023-12-14T12:23:18;1.50;;;0.90;;
17079;SDS011;8655;57.106;-2.088;2023-12-14T12:25:44;1.57;;;0.90;;
17079;SDS011;8655;57.106;-2.088;2023-12-14T12:28:09;1.10;;;1.00;;
17079;SDS011;8655;57.106;-2.088;2023-12-14T12:30:35;1.83;;;0.90;;
17079;SDS011;8655;57.106;-2.088;2023-12-14T12:33:01;1.33;;;0.90;;
17079;SDS011;8655;57.106;-2.088;2023-12-14T12:35:26;2.60;;;1.27;;
17079;SDS011;8655;57.106;-2.088;2023-12-14T12:37:55;1.70;;;1.10;;
17079;SDS011;8655;57.106;-2.088;2023-12-14T12:40:21;1.63;;;0.90;;
17079;SDS011;8655;57.106;-2.088;2023-12-14T12:42:47;2.40;;;1.07;;
17079;SDS011;8655;57.106;-2.088;2023-12-14T12:45:13;1.60;;;0.93;;
17079;SDS011;8655;57.106;-2.088;2023-12-14T12:47:41;1.37;;;1.00;;
17079;SDS011;8655;57.106;-2.088;2023-12-14T12:50:07;0.73;;;0.70;;
17079;SDS011;8655;57.106;-2.088;2023-12-14T12:52:33;1.13;;;1.03;;
17079;SDS011;8655;57.106;-2.088;2023-12-14T12:54:59;1.17;;;0.97;;
17079;SDS011;8655;57.106;-2.088;2023-12-14T12:57:25;1.83;;;1.30;;
17079;SDS011;8655;57.106;-2.088;2023-12-14T12:59:51;2.30;;;1.10;;
17079;SDS011;8655;57.106;-2.088;2023-12-14T13:02:17;1.57;;;1.00;;
17079;SDS011;8655;57.106;-2.088;2023-12-14T13:04:43;1.60;;;1.00;;
17079;SDS011;8655;57.106;-2.088;2023-12-14T13:07:08;2.00;;;1.10;;
17079;SDS011;8655;57.106;-2.088;2023-12-14T13:09:34;1.37;;;1.07;;
17079;SDS011;8655;57.106;-2.088;2023-12-14T13:12:00;2.83;;;1.20;;
17079;SDS011;8655;57.106;-2.088;2023-12-14T13:14:26;2.37;;;1.10;;
17079;SDS011;8655;57.106;-2.088;2023-12-14T13:16:51;1.47;;;1.20;;
17079;SDS011;8655;57.106;-2.088;2023-12-14T13:19:17;2.20;;;1.40;;
17079;SDS011;8655;57.106;-2.088;2023-12-14T13:21:43;1.57;;;1.00;;
17079;SDS011;8655;57.106;-2.088;2023-12-14T13:24:08;1.93;;;1.27;;
17079;SDS011;8655;57.106;-2.088;2023-12-14T13:26:34;1.30;;;0.97;;
17079;SDS011;8655;57.106;-2.088;2023-12-14T13:29:00;1.70;;;1.13;;
17079;SDS011;8655;57.106;-2.088;2023-12-14T13:31:25;2.37;;;1.40;;
17079;SDS011;8655;57.106;-2.088;2023-12-14T13:33:51;1.67;;;1.03;;
17079;SDS011;8655;57.106;-2.088;2023-12-14T13:36:18;2.37;;;1.00;;
17079;SDS011;8655;57.106;-2.088;2023-12-14T13:38:44;2.00;;;1.20;;
17079;SDS011;8655;57.106;-2.088;2023-12-14T13:41:10;2.13;;;1.07;;
17079;SDS011;8655;57.106;-2.088;2023-12-14T13:43:36;1.27;;;1.00;;
17079;SDS011;8655;57.106;-2.088;2023-12-14T13:46:02;1.93;;;1.20;;
17079;SDS011;8655;57.106;-2.088;2023-12-14T13:48:28;1.50;;;1.10;;
17079;SDS011;8655;57.106;-2.088;2023-12-14T13:50:54;3.40;;;1.03;;
17079;SDS011;8655;57.106;-2.088;2023-12-14T13:53:20;1.70;;;0.90;;
17079;SDS011;8655;57.106;-2.088;2023-12-14T13:55:46;1.50;;;1.17;;
17079;SDS011;8655;57.106;-2.088;2023-12-14T13:58:14;2.10;;;1.10;;
17079;SDS011;8655;57.106;-2.088;2023-12-14T14:00:40;1.83;;;1.10;;
17079;SDS011;8655;57.106;-2.088;2023-12-14T14:03:05;2.57;;;1.30;;
17079;SDS011;8655;57.106;-2.088;2023-12-14T14:05:32;2.43;;;1.20;;
17079;SDS011;8655;57.106;-2.088;2023-12-14T14:07:58;2.77;;;1.30;;
17079;SDS011;8655;57.106;-2.088;2023-12-14T14:10:24;2.60;;;1.00;;
17079;SDS011;8655;57.106;-2.088;2023-12-14T14:12:50;1.60;;;1.10;;
17079;SDS011;8655;57.106;-2.088;2023-12-14T14:15:16;1.67;;;1.20;;
17079;SDS011;8655;57.106;-2.088;2023-12-14T14:17:42;2.43;;;1.27;;
17079;SDS011;8655;57.106;-2.088;2023-12-14T14:20:08;2.30;;;1.30;;
17079;SDS011;8655;57.106;-2.088;2023-12-14T14:22:36;1.60;;;1.10;;
17079;SDS011;8655;57.106;-2.088;2023-12-14T14:25:03;2.23;;;0.97;;
17079;SDS011;8655;57.106;-2.088;2023-12-14T14:27:31;2.50;;;1.13;;
17079;SDS011;8655;57.106;-2.088;2023-12-14T14:29:58;2.70;;;1.33;;
17079;SDS011;8655;57.106;-2.088;2023-12-14T14:32:24;2.50;;;1.30;;
17079;SDS011;8655;57.106;-2.088;2023-12-14T14:34:49;2.77;;;1.30;;
17079;SDS011;8655;57.106;-2.088;2023-12-14T14:37:15;1.97;;;1.37;;
17079;SDS011;8655;57.106;-2.088;2023-12-14T14:39:42;2.77;;;1.30;;
17079;SDS011;8655;57.106;-2.088;2023-12-14T14:42:08;1.60;;;1.10;;
17079;SDS011;8655;57.106;-2.088;2023-12-14T14:44:34;2.23;;;1.37;;
17079;SDS011;8655;57.106;-2.088;2023-12-14T14:47:00;2.47;;;1.20;;
17079;SDS011;8655;57.106;-2.088;2023-12-14T14:49:27;2.33;;;1.50;;
17079;SDS011;8655;57.106;-2.088;2023-12-14T14:51:53;3.00;;;1.33;;